sensor_id;sensor_type;location;lat;lon;timestamp;P1;durP1;ratioP1;P2;durP2;ratioP2
36449;SDS011;22475;51.390;7.180;2023-09-12T00:01:34;4.65;;;4.25;;
36449;SDS011;22475;51.390;7.180;2023-09-12T00:04:00;4.15;;;3.85;;
36449;SDS011;22475;51.390;7.180;2023-09-12T00:06:27;4.10;;;3.80;;
36449;SDS011;22475;51.390;7.180;2023-09-12T00:08:54;3.83;;;3.50;;
36449;SDS011;22475;51.390;7.180;2023-09-12T00:11:22;5.10;;;4.10;;
36449;SDS011;22475;51.390;7.180;2023-09-12T00:13:50;3.75;;;3.45;;
36449;SDS011;22475;51.390;7.180;2023-09-12T00:16:17;3.70;;;3.40;;
36449;SDS011;22475;51.390;7.180;2023-09-12T00:18:44;4.30;;;3.83;;
36449;SDS011;22475;51.390;7.180;2023-09-12T00:21:11;4.38;;;3.92;;
36449;SDS011;22475;51.390;7.180;2023-09-12T00:23:38;4.30;;;3.90;;
36449;SDS011;22475;51.390;7.180;2023-09-12T00:26:04;4.40;;;4.05;;
36449;SDS011;22475;51.390;7.180;2023-09-12T00:28:32;3.38;;;3.10;;
36449;SDS011;22475;51.390;7.180;2023-09-12T00:30:59;6.28;;;2.90;;
36449;SDS011;22475;51.390;7.180;2023-09-12T00:33:26;3.13;;;2.75;;
36449;SDS011;22475;51.390;7.180;2023-09-12T00:35:53;4.10;;;3.80;;
36449;SDS011;22475;51.390;7.180;2023-09-12T00:38:19;4.13;;;3.72;;
36449;SDS011;22475;51.390;7.180;2023-09-12T00:40:46;5.50;;;3.58;;
36449;SDS011;22475;51.390;7.180;2023-09-12T00:43:13;4.78;;;4.20;;
36449;SDS011;22475;51.390;7.180;2023-09-12T00:45:41;5.38;;;3.67;;
36449;SDS011;22475;51.390;7.180;2023-09-12T00:48:08;3.45;;;3.15;;
36449;SDS011;22475;51.390;7.180;2023-09-12T00:50:35;10.15;;;4.22;;
36449;SDS011;22475;51.390;7.180;2023-09-12T00:53:03;3.33;;;3.13;;
36449;SDS011;22475;51.390;7.180;2023-09-12T00:55:31;3.65;;;3.42;;
36449;SDS011;22475;51.390;7.180;2023-09-12T00:58:00;3.17;;;2.97;;
36449;SDS011;22475;51.390;7.180;2023-09-12T01:00:27;5.28;;;3.88;;
36449;SDS011;22475;51.390;7.180;2023-09-12T01:02:56;4.07;;;3.38;;
36449;SDS011;22475;51.390;7.180;2023-09-12T01:05:24;4.43;;;3.20;;
36449;SDS011;22475;51.390;7.180;2023-09-12T01:07:51;3.08;;;2.78;;
36449;SDS011;22475;51.390;7.180;2023-09-12T01:10:18;3.60;;;3.10;;
36449;SDS011;22475;51.390;7.180;2023-09-12T01:12:44;4.55;;;3.33;;
36449;SDS011;22475;51.390;7.180;2023-09-12T01:15:11;2.97;;;2.75;;
36449;SDS011;22475;51.390;7.180;2023-09-12T01:17:40;3.05;;;2.85;;
36449;SDS011;22475;51.390;7.180;2023-09-12T01:20:10;2.45;;;2.35;;
36449;SDS011;22475;51.390;7.180;2023-09-12T01:22:47;4.68;;;3.55;;
36449;SDS011;22475;51.390;7.180;2023-09-12T01:25:34;3.13;;;2.92;;
36449;SDS011;22475;51.390;7.180;2023-09-12T01:28:13;3.17;;;2.87;;
36449;SDS011;22475;51.390;7.180;2023-09-12T01:30:42;3.00;;;2.70;;
36449;SDS011;22475;51.390;7.180;2023-09-12T01:35:40;2.88;;;2.63;;
36449;SDS011;22475;51.390;7.180;2023-09-12T01:38:06;3.13;;;2.92;;
36449;SDS011;22475;51.390;7.180;2023-09-12T01:40:34;3.55;;;3.25;;
36449;SDS011;22475;51.390;7.180;2023-09-12T01:43:05;3.40;;;3.10;;
36449;SDS011;22475;51.390;7.180;2023-09-12T01:45:34;5.88;;;3.30;;
36449;SDS011;22475;51.390;7.180;2023-09-12T01:48:02;2.42;;;2.28;;
36449;SDS011;22475;51.390;7.180;2023-09-12T01:50:31;4.10;;;3.08;;
36449;SDS011;22475;51.390;7.180;2023-09-12T01:52:59;3.58;;;3.17;;
36449;SDS011;22475;51.390;7.180;2023-09-12T01:55:26;4.07;;;2.60;;
36449;SDS011;22475;51.390;7.180;2023-09-12T01:57:53;2.60;;;2.40;;
36449;SDS011;22475;51.390;7.180;2023-09-12T02:00:21;4.20;;;3.20;;
36449;SDS011;22475;51.390;7.180;2023-09-12T02:02:50;6.05;;;2.38;;
36449;SDS011;22475;51.390;7.180;2023-09-12T02:05:17;2.90;;;2.70;;
36449;SDS011;22475;51.390;7.180;2023-09-12T02:07:46;3.27;;;2.97;;
36449;SDS011;22475;51.390;7.180;2023-09-12T02:10:14;4.57;;;2.90;;
36449;SDS011;22475;51.390;7.180;2023-09-12T02:12:41;2.75;;;2.55;;
36449;SDS011;22475;51.390;7.180;2023-09-12T02:15:08;2.80;;;2.60;;
36449;SDS011;22475;51.390;7.180;2023-09-12T02:17:35;2.70;;;2.50;;
36449;SDS011;22475;51.390;7.180;2023-09-12T02:20:06;3.42;;;3.08;;
36449;SDS011;22475;51.390;7.180;2023-09-12T02:22:33;4.82;;;3.03;;
36449;SDS011;22475;51.390;7.180;2023-09-12T02:25:00;4.57;;;3.15;;
36449;SDS011;22475;51.390;7.180;2023-09-12T02:27:27;2.80;;;2.60;;
36449;SDS011;22475;51.390;7.180;2023-09-12T02:29:54;2.65;;;2.45;;
36449;SDS011;22475;51.390;7.180;2023-09-12T02:32:21;3.72;;;3.30;;
36449;SDS011;22475;51.390;7.180;2023-09-12T02:34:48;9.15;;;4.35;;
36449;SDS011;22475;51.390;7.180;2023-09-12T02:37:16;3.67;;;3.40;;
36449;SDS011;22475;51.390;7.180;2023-09-12T02:39:42;2.80;;;2.60;;
36449;SDS011;22475;51.390;7.180;2023-09-12T02:42:09;3.13;;;2.38;;
36449;SDS011;22475;51.390;7.180;2023-09-12T02:44:36;3.05;;;2.75;;
36449;SDS011;22475;51.390;7.180;2023-09-12T02:47:03;3.13;;;2.88;;
36449;SDS011;22475;51.390;7.180;2023-09-12T02:49:30;2.50;;;2.30;;
36449;SDS011;22475;51.390;7.180;2023-09-12T02:51:56;2.50;;;2.40;;
36449;SDS011;22475;51.390;7.180;2023-09-12T02:54:25;3.25;;;2.97;;
36449;SDS011;22475;51.390;7.180;2023-09-12T02:56:51;3.90;;;2.70;;
36449;SDS011;22475;51.390;7.180;2023-09-12T02:59:18;2.53;;;2.20;;
36449;SDS011;22475;51.390;7.180;2023-09-12T03:01:45;2.63;;;2.42;;
36449;SDS011;22475;51.390;7.180;2023-09-12T03:04:11;9.23;;;3.05;;
36449;SDS011;22475;51.390;7.180;2023-09-12T03:06:38;4.32;;;2.72;;
36449;SDS011;22475;51.390;7.180;2023-09-12T03:09:05;3.20;;;3.00;;
36449;SDS011;22475;51.390;7.180;2023-09-12T03:11:34;2.88;;;2.65;;
36449;SDS011;22475;51.390;7.180;2023-09-12T03:14:00;3.38;;;2.50;;
36449;SDS011;22475;51.390;7.180;2023-09-12T03:16:27;2.97;;;2.78;;
36449;SDS011;22475;51.390;7.180;2023-09-12T03:18:54;5.78;;;4.15;;
36449;SDS011;22475;51.390;7.180;2023-09-12T03:21:20;5.15;;;4.55;;
36449;SDS011;22475;51.390;7.180;2023-09-12T03:23:47;8.20;;;5.30;;
36449;SDS011;22475;51.390;7.180;2023-09-12T03:26:14;2.90;;;2.70;;
36449;SDS011;22475;51.390;7.180;2023-09-12T03:28:42;4.35;;;3.95;;
36449;SDS011;22475;51.390;7.180;2023-09-12T03:31:09;9.88;;;5.97;;
36449;SDS011;22475;51.390;7.180;2023-09-12T03:33:37;3.33;;;3.03;;
36449;SDS011;22475;51.390;7.180;2023-09-12T03:36:04;3.00;;;2.80;;
36449;SDS011;22475;51.390;7.180;2023-09-12T03:38:32;3.20;;;2.65;;
36449;SDS011;22475;51.390;7.180;2023-09-12T03:40:59;2.95;;;2.75;;
36449;SDS011;22475;51.390;7.180;2023-09-12T03:43:26;3.60;;;2.70;;
36449;SDS011;22475;51.390;7.180;2023-09-12T03:45:54;3.78;;;2.80;;
36449;SDS011;22475;51.390;7.180;2023-09-12T03:48:21;3.35;;;3.10;;
36449;SDS011;22475;51.390;7.180;2023-09-12T03:50:48;3.40;;;3.15;;
36449;SDS011;22475;51.390;7.180;2023-09-12T03:53:14;4.30;;;3.90;;
36449;SDS011;22475;51.390;7.180;2023-09-12T03:55:41;2.90;;;2.70;;
36449;SDS011;22475;51.390;7.180;2023-09-12T03:58:08;3.08;;;2.80;;
36449;SDS011;22475;51.390;7.180;2023-09-12T04:00:35;3.60;;;3.30;;
36449;SDS011;22475;51.390;7.180;2023-09-12T04:03:03;3.05;;;2.85;;
36449;SDS011;22475;51.390;7.180;2023-09-12T04:05:30;9.40;;;4.13;;
36449;SDS011;22475;51.390;7.180;2023-09-12T04:07:57;7.10;;;3.63;;
36449;SDS011;22475;51.390;7.180;2023-09-12T04:10:24;3.40;;;3.10;;
36449;SDS011;22475;51.390;7.180;2023-09-12T04:12:50;4.68;;;4.15;;
36449;SDS011;22475;51.390;7.180;2023-09-12T04:15:17;4.90;;;4.00;;
36449;SDS011;22475;51.390;7.180;2023-09-12T04:17:44;3.50;;;3.20;;
36449;SDS011;22475;51.390;7.180;2023-09-12T04:20:12;2.88;;;2.65;;
36449;SDS011;22475;51.390;7.180;2023-09-12T04:22:39;3.40;;;3.15;;
36449;SDS011;22475;51.390;7.180;2023-09-12T04:25:06;3.92;;;3.53;;
36449;SDS011;22475;51.390;7.180;2023-09-12T04:27:33;7.50;;;4.80;;
36449;SDS011;22475;51.390;7.180;2023-09-12T04:30:00;4.80;;;3.90;;
36449;SDS011;22475;51.390;7.180;2023-09-12T04:32:28;4.25;;;3.85;;
36449;SDS011;22475;51.390;7.180;2023-09-12T04:34:55;4.03;;;3.63;;
36449;SDS011;22475;51.390;7.180;2023-09-12T04:37:23;8.73;;;4.55;;
36449;SDS011;22475;51.390;7.180;2023-09-12T04:39:50;7.75;;;4.78;;
36449;SDS011;22475;51.390;7.180;2023-09-12T04:42:16;4.82;;;4.28;;
36449;SDS011;22475;51.390;7.180;2023-09-12T04:44:43;4.05;;;3.75;;
36449;SDS011;22475;51.390;7.180;2023-09-12T04:47:10;4.10;;;3.80;;
36449;SDS011;22475;51.390;7.180;2023-09-12T04:49:37;6.18;;;3.50;;
36449;SDS011;22475;51.390;7.180;2023-09-12T04:52:04;5.30;;;4.75;;
36449;SDS011;22475;51.390;7.180;2023-09-12T04:54:33;5.15;;;4.00;;
36449;SDS011;22475;51.390;7.180;2023-09-12T04:56:59;5.50;;;4.50;;
36449;SDS011;22475;51.390;7.180;2023-09-12T04:59:26;6.20;;;4.15;;
36449;SDS011;22475;51.390;7.180;2023-09-12T05:01:53;4.95;;;3.97;;
36449;SDS011;22475;51.390;7.180;2023-09-12T05:04:19;4.28;;;3.53;;
36449;SDS011;22475;51.390;7.180;2023-09-12T05:06:46;3.63;;;3.33;;
36449;SDS011;22475;51.390;7.180;2023-09-12T05:09:13;5.32;;;4.55;;
36449;SDS011;22475;51.390;7.180;2023-09-12T05:11:42;4.20;;;3.80;;
36449;SDS011;22475;51.390;7.180;2023-09-12T05:14:09;5.03;;;4.07;;
36449;SDS011;22475;51.390;7.180;2023-09-12T05:16:36;4.18;;;3.88;;
36449;SDS011;22475;51.390;7.180;2023-09-12T05:19:02;3.85;;;3.65;;
36449;SDS011;22475;51.390;7.180;2023-09-12T05:21:29;4.40;;;3.75;;
36449;SDS011;22475;51.390;7.180;2023-09-12T05:23:56;4.47;;;4.18;;
36449;SDS011;22475;51.390;7.180;2023-09-12T05:26:22;4.68;;;4.20;;
36449;SDS011;22475;51.390;7.180;2023-09-12T05:28:50;4.28;;;3.88;;
36449;SDS011;22475;51.390;7.180;2023-09-12T05:31:17;6.38;;;5.18;;
36449;SDS011;22475;51.390;7.180;2023-09-12T05:33:44;6.15;;;4.15;;
36449;SDS011;22475;51.390;7.180;2023-09-12T05:36:11;4.93;;;4.20;;
36449;SDS011;22475;51.390;7.180;2023-09-12T05:38:37;6.65;;;3.28;;
36449;SDS011;22475;51.390;7.180;2023-09-12T05:41:04;4.90;;;4.47;;
36449;SDS011;22475;51.390;7.180;2023-09-12T05:43:32;6.10;;;3.85;;
36449;SDS011;22475;51.390;7.180;2023-09-12T05:46:00;4.15;;;3.85;;
36449;SDS011;22475;51.390;7.180;2023-09-12T05:48:28;4.05;;;3.75;;
36449;SDS011;22475;51.390;7.180;2023-09-12T05:50:54;6.55;;;4.75;;
36449;SDS011;22475;51.390;7.180;2023-09-12T05:53:21;5.50;;;3.63;;
36449;SDS011;22475;51.390;7.180;2023-09-12T05:55:48;3.80;;;3.22;;
36449;SDS011;22475;51.390;7.180;2023-09-12T05:58:15;3.88;;;3.58;;
36449;SDS011;22475;51.390;7.180;2023-09-12T06:00:41;3.53;;;3.22;;
36449;SDS011;22475;51.390;7.180;2023-09-12T06:03:10;3.67;;;3.30;;
36449;SDS011;22475;51.390;7.180;2023-09-12T06:05:38;4.50;;;3.28;;
36449;SDS011;22475;51.390;7.180;2023-09-12T06:08:05;7.57;;;4.78;;
36449;SDS011;22475;51.390;7.180;2023-09-12T06:10:31;7.03;;;3.88;;
36449;SDS011;22475;51.390;7.180;2023-09-12T06:12:58;4.45;;;4.05;;
36449;SDS011;22475;51.390;7.180;2023-09-12T06:15:25;4.85;;;3.53;;
36449;SDS011;22475;51.390;7.180;2023-09-12T06:17:52;3.60;;;3.38;;
36449;SDS011;22475;51.390;7.180;2023-09-12T06:20:21;3.80;;;3.58;;
36449;SDS011;22475;51.390;7.180;2023-09-12T06:22:48;4.88;;;4.43;;
36449;SDS011;22475;51.390;7.180;2023-09-12T06:25:16;4.68;;;4.28;;
36449;SDS011;22475;51.390;7.180;2023-09-12T06:27:42;6.65;;;4.72;;
36449;SDS011;22475;51.390;7.180;2023-09-12T06:30:10;4.07;;;3.75;;
36449;SDS011;22475;51.390;7.180;2023-09-12T06:32:37;5.20;;;4.10;;
36449;SDS011;22475;51.390;7.180;2023-09-12T06:35:04;6.75;;;3.92;;
36449;SDS011;22475;51.390;7.180;2023-09-12T06:37:33;5.95;;;5.35;;
36449;SDS011;22475;51.390;7.180;2023-09-12T06:40:00;8.70;;;5.90;;
36449;SDS011;22475;51.390;7.180;2023-09-12T06:42:26;4.97;;;4.30;;
36449;SDS011;22475;51.390;7.180;2023-09-12T06:44:53;7.55;;;4.78;;
36449;SDS011;22475;51.390;7.180;2023-09-12T06:47:20;4.65;;;4.00;;
36449;SDS011;22475;51.390;7.180;2023-09-12T06:49:47;6.30;;;5.25;;
36449;SDS011;22475;51.390;7.180;2023-09-12T06:52:13;5.47;;;3.85;;
36449;SDS011;22475;51.390;7.180;2023-09-12T06:54:41;7.93;;;6.05;;
36449;SDS011;22475;51.390;7.180;2023-09-12T06:57:08;4.43;;;3.92;;
36449;SDS011;22475;51.390;7.180;2023-09-12T06:59:35;5.03;;;4.32;;
36449;SDS011;22475;51.390;7.180;2023-09-12T07:02:03;8.43;;;6.05;;
36449;SDS011;22475;51.390;7.180;2023-09-12T07:04:29;6.47;;;5.53;;
36449;SDS011;22475;51.390;7.180;2023-09-12T07:06:56;7.45;;;6.03;;
36449;SDS011;22475;51.390;7.180;2023-09-12T07:09:23;5.10;;;4.60;;
36449;SDS011;22475;51.390;7.180;2023-09-12T07:11:51;6.03;;;4.53;;
36449;SDS011;22475;51.390;7.180;2023-09-12T07:14:18;6.05;;;4.30;;
36449;SDS011;22475;51.390;7.180;2023-09-12T07:16:45;4.03;;;3.72;;
36449;SDS011;22475;51.390;7.180;2023-09-12T07:19:12;5.28;;;4.55;;
36449;SDS011;22475;51.390;7.180;2023-09-12T07:21:39;4.45;;;4.05;;
36449;SDS011;22475;51.390;7.180;2023-09-12T07:24:06;5.43;;;4.13;;
36449;SDS011;22475;51.390;7.180;2023-09-12T07:26:33;3.92;;;3.35;;
36449;SDS011;22475;51.390;7.180;2023-09-12T07:29:01;4.38;;;3.97;;
36449;SDS011;22475;51.390;7.180;2023-09-12T07:31:29;4.80;;;4.40;;
36449;SDS011;22475;51.390;7.180;2023-09-12T07:33:56;8.02;;;4.82;;
36449;SDS011;22475;51.390;7.180;2023-09-12T07:36:23;9.63;;;4.90;;
36449;SDS011;22475;51.390;7.180;2023-09-12T07:38:49;8.27;;;4.22;;
36449;SDS011;22475;51.390;7.180;2023-09-12T07:41:16;5.95;;;5.43;;
36449;SDS011;22475;51.390;7.180;2023-09-12T07:43:44;9.75;;;5.50;;
36449;SDS011;22475;51.390;7.180;2023-09-12T07:46:12;4.25;;;3.72;;
36449;SDS011;22475;51.390;7.180;2023-09-12T07:48:38;4.45;;;4.05;;
36449;SDS011;22475;51.390;7.180;2023-09-12T07:51:11;4.95;;;4.43;;
36449;SDS011;22475;51.390;7.180;2023-09-12T07:53:39;5.70;;;3.70;;
36449;SDS011;22475;51.390;7.180;2023-09-12T07:56:06;5.60;;;5.13;;
36449;SDS011;22475;51.390;7.180;2023-09-12T07:58:35;4.40;;;4.00;;
36449;SDS011;22475;51.390;7.180;2023-09-12T08:01:04;6.60;;;4.43;;
36449;SDS011;22475;51.390;7.180;2023-09-12T08:03:32;3.90;;;3.60;;
36449;SDS011;22475;51.390;7.180;2023-09-12T08:05:59;5.40;;;3.85;;
36449;SDS011;22475;51.390;7.180;2023-09-12T08:08:26;4.47;;;4.05;;
36449;SDS011;22475;51.390;7.180;2023-09-12T08:10:53;12.50;;;4.50;;
36449;SDS011;22475;51.390;7.180;2023-09-12T08:13:20;7.05;;;4.28;;
36449;SDS011;22475;51.390;7.180;2023-09-12T08:15:47;4.10;;;3.45;;
36449;SDS011;22475;51.390;7.180;2023-09-12T08:18:14;8.27;;;3.95;;
36449;SDS011;22475;51.390;7.180;2023-09-12T08:20:43;6.50;;;3.92;;
36449;SDS011;22475;51.390;7.180;2023-09-12T08:23:10;5.43;;;3.83;;
36449;SDS011;22475;51.390;7.180;2023-09-12T08:25:36;5.82;;;3.90;;
36449;SDS011;22475;51.390;7.180;2023-09-12T08:28:03;4.55;;;3.75;;
36449;SDS011;22475;51.390;7.180;2023-09-12T08:30:30;3.45;;;3.15;;
36449;SDS011;22475;51.390;7.180;2023-09-12T08:32:58;4.75;;;3.97;;
36449;SDS011;22475;51.390;7.180;2023-09-12T08:35:27;4.20;;;3.80;;
36449;SDS011;22475;51.390;7.180;2023-09-12T08:37:56;4.82;;;3.58;;
36449;SDS011;22475;51.390;7.180;2023-09-12T08:40:22;4.47;;;3.78;;
36449;SDS011;22475;51.390;7.180;2023-09-12T08:42:49;3.47;;;3.17;;
36449;SDS011;22475;51.390;7.180;2023-09-12T08:45:18;3.65;;;3.08;;
36449;SDS011;22475;51.390;7.180;2023-09-12T08:47:49;4.75;;;3.97;;
36449;SDS011;22475;51.390;7.180;2023-09-12T08:50:18;4.07;;;3.70;;
36449;SDS011;22475;51.390;7.180;2023-09-12T08:52:48;3.03;;;2.83;;
36449;SDS011;22475;51.390;7.180;2023-09-12T08:55:16;8.30;;;3.78;;
36449;SDS011;22475;51.390;7.180;2023-09-12T08:57:43;3.13;;;2.88;;
36449;SDS011;22475;51.390;7.180;2023-09-12T09:00:12;4.00;;;3.45;;
36449;SDS011;22475;51.390;7.180;2023-09-12T09:02:40;4.50;;;4.05;;
36449;SDS011;22475;51.390;7.180;2023-09-12T09:05:08;7.18;;;3.67;;
36449;SDS011;22475;51.390;7.180;2023-09-12T09:07:36;4.57;;;3.35;;
36449;SDS011;22475;51.390;7.180;2023-09-12T09:10:04;6.45;;;3.58;;
36449;SDS011;22475;51.390;7.180;2023-09-12T09:12:33;4.47;;;4.03;;
36449;SDS011;22475;51.390;7.180;2023-09-12T09:17:49;3.90;;;3.40;;
36449;SDS011;22475;51.390;7.180;2023-09-12T09:20:21;3.85;;;3.55;;
36449;SDS011;22475;51.390;7.180;2023-09-12T09:22:58;6.18;;;3.40;;
36449;SDS011;22475;51.390;7.180;2023-09-12T09:25:26;4.45;;;3.45;;
36449;SDS011;22475;51.390;7.180;2023-09-12T09:27:54;3.42;;;2.60;;
36449;SDS011;22475;51.390;7.180;2023-09-12T09:30:38;9.20;;;4.28;;
36449;SDS011;22475;51.390;7.180;2023-09-12T09:33:06;9.23;;;3.80;;
36449;SDS011;22475;51.390;7.180;2023-09-12T09:35:33;5.53;;;3.38;;
36449;SDS011;22475;51.390;7.180;2023-09-12T09:38:00;4.22;;;3.85;;
36449;SDS011;22475;51.390;7.180;2023-09-12T09:40:28;4.38;;;4.03;;
36449;SDS011;22475;51.390;7.180;2023-09-12T09:42:57;3.33;;;3.10;;
36449;SDS011;22475;51.390;7.180;2023-09-12T09:45:25;8.88;;;3.30;;
36449;SDS011;22475;51.390;7.180;2023-09-12T09:47:52;3.33;;;3.13;;
36449;SDS011;22475;51.390;7.180;2023-09-12T09:50:23;4.55;;;3.40;;
36449;SDS011;22475;51.390;7.180;2023-09-12T09:52:52;4.95;;;3.60;;
36449;SDS011;22475;51.390;7.180;2023-09-12T09:55:21;3.63;;;3.33;;
36449;SDS011;22475;51.390;7.180;2023-09-12T09:57:49;4.15;;;2.83;;
36449;SDS011;22475;51.390;7.180;2023-09-12T10:00:18;7.47;;;4.38;;
36449;SDS011;22475;51.390;7.180;2023-09-12T10:02:46;3.95;;;3.65;;
36449;SDS011;22475;51.390;7.180;2023-09-12T10:05:15;5.22;;;4.07;;
36449;SDS011;22475;51.390;7.180;2023-09-12T10:07:43;5.63;;;3.63;;
36449;SDS011;22475;51.390;7.180;2023-09-12T10:10:13;4.10;;;3.80;;
36449;SDS011;22475;51.390;7.180;2023-09-12T10:12:43;6.00;;;3.00;;
36449;SDS011;22475;51.390;7.180;2023-09-12T10:15:23;8.73;;;3.70;;
36449;SDS011;22475;51.390;7.180;2023-09-12T10:17:56;3.53;;;3.22;;
36449;SDS011;22475;51.390;7.180;2023-09-12T10:20:24;2.85;;;2.63;;
36449;SDS011;22475;51.390;7.180;2023-09-12T10:22:56;7.30;;;4.13;;
36449;SDS011;22475;51.390;7.180;2023-09-12T10:25:32;2.83;;;2.63;;
36449;SDS011;22475;51.390;7.180;2023-09-12T10:28:01;5.75;;;3.95;;
36449;SDS011;22475;51.390;7.180;2023-09-12T10:30:31;5.28;;;3.58;;
36449;SDS011;22475;51.390;7.180;2023-09-12T10:32:58;3.40;;;3.10;;
36449;SDS011;22475;51.390;7.180;2023-09-12T10:35:27;2.85;;;2.65;;
36449;SDS011;22475;51.390;7.180;2023-09-12T10:37:56;4.20;;;2.78;;
36449;SDS011;22475;51.390;7.180;2023-09-12T10:40:26;3.45;;;3.20;;
36449;SDS011;22475;51.390;7.180;2023-09-12T10:42:55;3.17;;;2.97;;
36449;SDS011;22475;51.390;7.180;2023-09-12T10:45:22;3.92;;;3.65;;
36449;SDS011;22475;51.390;7.180;2023-09-12T10:47:51;6.50;;;3.53;;
36449;SDS011;22475;51.390;7.180;2023-09-12T10:50:19;3.30;;;3.10;;
36449;SDS011;22475;51.390;7.180;2023-09-12T10:52:46;2.72;;;2.47;;
36449;SDS011;22475;51.390;7.180;2023-09-12T10:55:15;3.25;;;3.05;;
36449;SDS011;22475;51.390;7.180;2023-09-12T11:00:28;3.08;;;2.88;;
36449;SDS011;22475;51.390;7.180;2023-09-12T11:02:59;4.35;;;3.45;;
36449;SDS011;22475;51.390;7.180;2023-09-12T11:05:52;3.17;;;2.97;;
36449;SDS011;22475;51.390;7.180;2023-09-12T11:08:20;2.53;;;2.33;;
36449;SDS011;22475;51.390;7.180;2023-09-12T11:13:45;3.50;;;3.30;;
36449;SDS011;22475;51.390;7.180;2023-09-12T11:16:12;4.40;;;3.50;;
36449;SDS011;22475;51.390;7.180;2023-09-12T11:21:41;4.90;;;2.72;;
36449;SDS011;22475;51.390;7.180;2023-09-12T11:24:09;3.33;;;2.63;;
36449;SDS011;22475;51.390;7.180;2023-09-12T11:26:44;3.33;;;3.08;;
36449;SDS011;22475;51.390;7.180;2023-09-12T11:29:27;3.58;;;3.15;;
36449;SDS011;22475;51.390;7.180;2023-09-12T11:31:56;3.00;;;2.83;;
36449;SDS011;22475;51.390;7.180;2023-09-12T11:34:27;3.30;;;3.00;;
36449;SDS011;22475;51.390;7.180;2023-09-12T11:36:56;4.07;;;3.17;;
36449;SDS011;22475;51.390;7.180;2023-09-12T11:39:25;4.75;;;3.53;;
36449;SDS011;22475;51.390;7.180;2023-09-12T11:41:54;7.28;;;3.25;;
36449;SDS011;22475;51.390;7.180;2023-09-12T11:44:22;3.33;;;2.80;;
36449;SDS011;22475;51.390;7.180;2023-09-12T11:46:49;2.72;;;2.63;;
36449;SDS011;22475;51.390;7.180;2023-09-12T11:49:16;2.88;;;2.67;;
36449;SDS011;22475;51.390;7.180;2023-09-12T11:51:46;3.17;;;2.90;;
36449;SDS011;22475;51.390;7.180;2023-09-12T11:54:15;3.00;;;2.70;;
36449;SDS011;22475;51.390;7.180;2023-09-12T11:59:10;2.80;;;2.47;;
36449;SDS011;22475;51.390;7.180;2023-09-12T12:01:37;3.55;;;3.25;;
36449;SDS011;22475;51.390;7.180;2023-09-12T12:04:04;2.78;;;2.58;;
36449;SDS011;22475;51.390;7.180;2023-09-12T12:06:32;2.70;;;2.50;;
36449;SDS011;22475;51.390;7.180;2023-09-12T12:09:00;2.85;;;2.65;;
36449;SDS011;22475;51.390;7.180;2023-09-12T12:11:30;2.83;;;2.63;;
36449;SDS011;22475;51.390;7.180;2023-09-12T12:13:58;3.88;;;3.53;;
36449;SDS011;22475;51.390;7.180;2023-09-12T12:16:34;3.72;;;3.42;;
36449;SDS011;22475;51.390;7.180;2023-09-12T12:19:01;2.95;;;2.58;;
36449;SDS011;22475;51.390;7.180;2023-09-12T12:21:28;3.80;;;3.25;;
36449;SDS011;22475;51.390;7.180;2023-09-12T12:23:59;2.92;;;2.72;;
36449;SDS011;22475;51.390;7.180;2023-09-12T12:28:54;2.97;;;2.78;;
36449;SDS011;22475;51.390;7.180;2023-09-12T12:31:21;2.83;;;2.63;;
36449;SDS011;22475;51.390;7.180;2023-09-12T12:33:49;3.60;;;3.30;;
36449;SDS011;22475;51.390;7.180;2023-09-12T12:36:16;3.90;;;3.20;;
36449;SDS011;22475;51.390;7.180;2023-09-12T12:38:43;4.57;;;2.95;;
36449;SDS011;22475;51.390;7.180;2023-09-12T12:41:13;2.80;;;2.60;;
36449;SDS011;22475;51.390;7.180;2023-09-12T12:43:40;6.55;;;3.03;;
36449;SDS011;22475;51.390;7.180;2023-09-12T12:46:11;3.13;;;2.70;;
36449;SDS011;22475;51.390;7.180;2023-09-12T12:48:38;3.25;;;2.90;;
36449;SDS011;22475;51.390;7.180;2023-09-12T12:51:13;3.08;;;2.88;;
36449;SDS011;22475;51.390;7.180;2023-09-12T12:53:42;3.53;;;3.22;;
36449;SDS011;22475;51.390;7.180;2023-09-12T12:56:11;3.13;;;2.92;;
36449;SDS011;22475;51.390;7.180;2023-09-12T12:58:50;3.38;;;3.08;;
36449;SDS011;22475;51.390;7.180;2023-09-12T13:01:18;3.75;;;3.42;;
36449;SDS011;22475;51.390;7.180;2023-09-12T13:03:46;3.17;;;2.97;;
36449;SDS011;22475;51.390;7.180;2023-09-12T13:06:15;3.15;;;2.88;;
36449;SDS011;22475;51.390;7.180;2023-09-12T13:08:43;3.35;;;2.78;;
36449;SDS011;22475;51.390;7.180;2023-09-12T13:11:12;3.00;;;2.80;;
36449;SDS011;22475;51.390;7.180;2023-09-12T13:13:39;2.92;;;2.72;;
36449;SDS011;22475;51.390;7.180;2023-09-12T13:16:07;3.10;;;2.90;;
36449;SDS011;22475;51.390;7.180;2023-09-12T13:18:37;3.08;;;2.88;;
36449;SDS011;22475;51.390;7.180;2023-09-12T13:21:04;3.53;;;3.28;;
36449;SDS011;22475;51.390;7.180;2023-09-12T13:23:32;2.67;;;2.47;;
36449;SDS011;22475;51.390;7.180;2023-09-12T13:26:00;2.25;;;2.15;;
36449;SDS011;22475;51.390;7.180;2023-09-12T13:28:26;2.88;;;2.53;;
36449;SDS011;22475;51.390;7.180;2023-09-12T13:30:53;2.67;;;2.58;;
36449;SDS011;22475;51.390;7.180;2023-09-12T13:33:20;3.53;;;3.33;;
36449;SDS011;22475;51.390;7.180;2023-09-12T13:35:49;3.00;;;2.80;;
36449;SDS011;22475;51.390;7.180;2023-09-12T13:38:16;3.22;;;2.92;;
36449;SDS011;22475;51.390;7.180;2023-09-12T13:40:44;3.30;;;3.10;;
36449;SDS011;22475;51.390;7.180;2023-09-12T13:43:12;3.47;;;3.20;;
36449;SDS011;22475;51.390;7.180;2023-09-12T13:45:39;5.07;;;3.67;;
36449;SDS011;22475;51.390;7.180;2023-09-12T13:48:06;3.05;;;2.85;;
36449;SDS011;22475;51.390;7.180;2023-09-12T13:50:34;3.45;;;3.25;;
36449;SDS011;22475;51.390;7.180;2023-09-12T13:53:02;2.95;;;2.75;;
36449;SDS011;22475;51.390;7.180;2023-09-12T13:55:31;3.40;;;3.10;;
36449;SDS011;22475;51.390;7.180;2023-09-12T13:57:58;3.10;;;2.75;;
36449;SDS011;22475;51.390;7.180;2023-09-12T14:00:25;3.95;;;3.50;;
36449;SDS011;22475;51.390;7.180;2023-09-12T14:02:52;2.88;;;2.55;;
36449;SDS011;22475;51.390;7.180;2023-09-12T14:05:18;3.20;;;3.00;;
36449;SDS011;22475;51.390;7.180;2023-09-12T14:07:45;3.28;;;2.90;;
36449;SDS011;22475;51.390;7.180;2023-09-12T14:10:13;3.95;;;3.05;;
36449;SDS011;22475;51.390;7.180;2023-09-12T14:12:41;2.45;;;2.35;;
36449;SDS011;22475;51.390;7.180;2023-09-12T14:15:09;3.28;;;3.08;;
36449;SDS011;22475;51.390;7.180;2023-09-12T14:17:39;3.33;;;3.13;;
36449;SDS011;22475;51.390;7.180;2023-09-12T14:20:06;3.08;;;2.88;;
36449;SDS011;22475;51.390;7.180;2023-09-12T14:22:34;3.42;;;3.15;;
36449;SDS011;22475;51.390;7.180;2023-09-12T14:25:00;2.88;;;2.70;;
36449;SDS011;22475;51.390;7.180;2023-09-12T14:27:29;3.20;;;3.00;;
36449;SDS011;22475;51.390;7.180;2023-09-12T14:29:55;3.72;;;3.42;;
36449;SDS011;22475;51.390;7.180;2023-09-12T14:32:24;4.45;;;3.22;;
36449;SDS011;22475;51.390;7.180;2023-09-12T14:34:51;3.13;;;2.92;;
36449;SDS011;22475;51.390;7.180;2023-09-12T14:37:17;3.03;;;2.83;;
36449;SDS011;22475;51.390;7.180;2023-09-12T14:39:44;3.83;;;3.03;;
36449;SDS011;22475;51.390;7.180;2023-09-12T14:42:11;3.58;;;3.28;;
36449;SDS011;22475;51.390;7.180;2023-09-12T14:44:39;3.15;;;2.75;;
36449;SDS011;22475;51.390;7.180;2023-09-12T14:47:06;2.55;;;2.45;;
36449;SDS011;22475;51.390;7.180;2023-09-12T14:49:32;2.60;;;2.50;;
36449;SDS011;22475;51.390;7.180;2023-09-12T14:51:59;4.07;;;3.03;;
36449;SDS011;22475;51.390;7.180;2023-09-12T14:54:26;2.15;;;2.05;;
36449;SDS011;22475;51.390;7.180;2023-09-12T14:56:52;3.00;;;2.83;;
36449;SDS011;22475;51.390;7.180;2023-09-12T14:59:19;2.47;;;2.38;;
36449;SDS011;22475;51.390;7.180;2023-09-12T15:01:47;2.88;;;2.67;;
36449;SDS011;22475;51.390;7.180;2023-09-12T15:04:14;4.43;;;3.00;;
36449;SDS011;22475;51.390;7.180;2023-09-12T15:06:41;5.40;;;3.25;;
36449;SDS011;22475;51.390;7.180;2023-09-12T15:09:08;4.57;;;2.67;;
36449;SDS011;22475;51.390;7.180;2023-09-12T15:11:34;2.97;;;2.78;;